Time;durP1;ratioP1;P1;durP2;ratioP2;P2;SDS_P1;SDS_P2;PMS_P1;PMS_P2;Temp;Humidity;BMP_temperature;BMP_pressure;BME280_temperature;BME280_humidity;BME280_pressure;Samples;Min_cycle;Max_cycle;Signal;HPM_P1;HPM_P2
2022/01/27 00:00:49;;;;;;;;;52.50;44.75;;;;;5.92;84.57;102628.81;4850449;29;45376;-87
2022/01/27 00:03:31;;;;;;;;;54.50;44.50;;;;;5.88;84.83;102622.41;4835678;29;45766;-86
2022/01/27 00:06:03;;;;;;;;;54.75;42.75;;;;;5.70;84.73;102590.47;4836368;29;45406;-87
2022/01/27 00:08:38;;;;;;;;;50.67;39.00;;;;;5.77;84.81;102608.50;4835817;29;44847;-87
2022/01/27 00:11:10;;;;;;;;;50.00;39.00;;;;;5.85;85.15;102621.31;4836559;29;47341;-87
2022/01/27 00:13:44;;;;;;;;;53.00;42.25;;;;;5.87;85.24;102611.75;4836382;29;45406;-87
2022/01/27 00:16:16;;;;;;;;;54.33;38.00;;;;;5.86;85.04;102608.22;4836806;29;45360;-87
2022/01/27 00:18:46;;;;;;;;;48.33;40.33;;;;;5.91;85.11;102611.13;4836861;29;45687;-88
2022/01/27 00:21:12;;;;;;;;;53.00;42.33;;;;;5.87;85.31;102604.72;4836227;29;47397;-88
2022/01/27 00:23:37;;;;;;;;;49.67;40.00;;;;;5.88;85.14;102596.00;4854277;29;45354;-87
2022/01/27 00:26:03;;;;;;;;;51.33;43.00;;;;;5.89;84.93;102594.28;4837604;29;45311;-87
2022/01/27 00:28:29;;;;;;;;;43.00;39.00;;;;;5.91;84.94;102595.28;4837021;29;45420;-88
2022/01/27 00:30:55;;;;;;;;;54.25;42.75;;;;;5.79;84.91;102585.75;4835833;29;46723;-87
2022/01/27 00:33:20;;;;;;;;;50.00;39.67;;;;;5.82;85.25;102590.34;4836297;29;45355;-87
2022/01/27 00:35:46;;;;;;;;;50.33;41.67;;;;;5.85;85.28;102586.97;4835736;29;45455;-87
2022/01/27 00:38:11;;;;;;;;;47.67;41.33;;;;;5.86;85.69;102586.16;4836002;29;45400;-87
2022/01/27 00:40:37;;;;;;;;;58.33;45.00;;;;;5.88;85.37;102568.66;4834394;29;46995;-87
2022/01/27 00:43:02;;;;;;;;;51.25;41.50;;;;;5.94;85.15;102571.72;4834573;29;45666;-87
2022/01/27 00:45:30;;;;;;;;;48.33;43.33;;;;;5.91;85.58;102558.31;4853475;29;45786;-87
2022/01/27 00:51:22;;;;;;;;;51.33;39.33;;;;;6.00;85.41;102569.50;4852379;29;45412;-88
2022/01/27 00:53:54;;;;;;;;;49.00;40.00;;;;;5.91;85.33;102558.31;4852907;29;45642;-88
2022/01/27 00:56:28;;;;;;;;;45.67;41.67;;;;;5.90;85.48;102567.97;4835975;29;44772;-87
2022/01/27 01:01:43;;;;;;;;;51.67;42.67;;;;;6.01;85.56;102561.66;4853412;29;45712;-88
2022/01/27 01:04:09;;;;;;;;;48.33;42.00;;;;;5.99;85.05;102558.00;4837638;29;45511;-87
2022/01/27 01:06:47;;;;;;;;;49.67;39.67;;;;;5.96;85.36;102549.91;4838412;29;45430;-87
2022/01/27 01:14:46;;;;;;;;;54.33;41.67;;;;;6.05;85.61;102546.91;4855370;29;45492;-88
2022/01/27 01:30:46;;;;;;;;;43.67;36.67;;;;;6.13;85.86;102539.47;4857500;29;45726;-88
2022/01/27 01:33:19;;;;;;;;;45.33;39.00;;;;;6.11;85.37;102526.16;4840653;29;47127;-87
2022/01/27 01:35:51;;;;;;;;;48.67;39.00;;;;;6.08;85.41;102510.13;4839973;29;45278;-88
2022/01/27 01:38:20;;;;;;;;;47.67;41.00;;;;;6.19;85.26;102513.41;4839406;29;46029;-88
2022/01/27 01:40:50;;;;;;;;;43.00;39.00;;;;;6.23;85.57;102510.13;4856540;29;45345;-88
2022/01/27 01:43:16;;;;;;;;;58.33;42.00;;;;;6.05;84.86;102477.34;4839476;29;47238;-88
2022/01/27 01:45:42;;;;;;;;;47.00;41.33;;;;;5.96;84.80;102469.78;4857760;29;45441;-88
2022/01/27 01:48:07;;;;;;;;;56.67;45.00;;;;;5.99;85.29;102485.78;4857967;29;45423;-88
2022/01/27 01:50:33;;;;;;;;;53.00;41.00;;;;;6.07;85.56;102491.53;4840524;29;45391;-88
2022/01/27 01:52:59;;;;;;;;;55.00;44.00;;;;;6.06;85.36;102489.69;4840746;29;47215;-88
2022/01/27 01:55:25;;;;;;;;;37.33;33.67;;;;;6.14;85.30;102499.94;4839093;29;45410;-88
2022/01/27 01:57:51;;;;;;;;;53.25;43.00;;;;;6.15;85.47;102496.47;4854873;29;45388;-88
2022/01/27 02:00:17;;;;;;;;;59.00;45.75;;;;;6.14;85.54;102492.00;4853868;29;45348;-86
2022/01/27 02:02:43;;;;;;;;;51.50;40.50;;;;;6.09;85.45;102468.78;4852145;29;45632;-85
2022/01/27 02:05:09;;;;;;;;;52.50;42.50;;;;;6.18;85.28;102490.44;4834834;29;45583;-85
2022/01/27 02:08:02;;;;;;;;;53.25;42.75;;;;;6.21;85.38;102491.53;4851840;29;45382;-84
2022/01/27 02:18:21;;;;;;;;;55.00;44.50;;;;;6.15;85.64;102492.91;4855988;29;44845;-84
2022/01/27 02:20:46;;;;;;;;;59.50;43.00;;;;;6.14;85.67;102489.38;4854482;29;44896;-83
2022/01/27 02:23:25;;;;;;;;;51.75;43.00;;;;;6.16;85.52;102481.50;4837332;29;46886;-84
2022/01/27 02:25:50;;;;;;;;;51.67;42.00;;;;;6.04;85.47;102470.22;4837996;29;45442;-84
2022/01/27 02:28:16;;;;;;;;;52.00;44.75;;;;;6.04;85.72;102475.50;4838364;29;45391;-84
2022/01/27 02:34:05;;;;;;;;;54.50;42.25;;;;;6.11;85.81;102473.31;4853649;29;45273;-84
2022/01/27 02:36:32;;;;;;;;;42.00;37.25;;;;;6.05;85.58;102466.75;4836701;29;45516;-83
2022/01/27 02:38:57;;;;;;;;;50.75;42.25;;;;;6.07;85.42;102471.31;4854027;29;45564;-84
2022/01/27 02:41:26;;;;;;;;;56.25;42.00;;;;;6.06;85.63;102466.88;4837525;29;45469;-84
2022/01/27 02:43:52;;;;;;;;;54.50;44.25;;;;;6.04;85.65;102471.16;4837554;29;45439;-84
2022/01/27 02:46:26;;;;;;;;;52.00;44.00;;;;;6.04;86.15;102467.56;4837486;29;45396;-84
2022/01/27 02:48:51;;;;;;;;;62.25;42.50;;;;;5.99;85.73;102467.31;4837594;29;45463;-83
2022/01/27 02:51:16;;;;;;;;;61.75;44.50;;;;;5.98;86.10;102466.41;4855674;29;44740;-84
2022/01/27 02:53:42;;;;;;;;;51.67;42.67;;;;;5.99;85.87;102468.19;4837394;29;48240;-84
2022/01/27 02:56:07;;;;;;;;;49.00;42.00;;;;;5.98;85.88;102462.84;4836196;29;45459;-84
2022/01/27 02:58:33;;;;;;;;;58.50;44.25;;;;;5.99;85.97;102454.09;4836421;29;45447;-84
2022/01/27 03:00:59;;;;;;;;;59.25;46.25;;;;;6.02;85.99;102467.50;4852786;29;44938;-83
2022/01/27 03:03:24;;;;;;;;;54.75;43.75;;;;;5.98;85.78;102453.19;4820686;29;48017;-83
2022/01/27 03:05:50;;;;;;;;;58.75;49.50;;;;;5.97;86.01;102458.38;4834356;29;45430;-84
2022/01/27 03:08:15;;;;;;;;;55.75;46.00;;;;;5.93;85.98;102451.94;4834645;29;44987;-84
2022/01/27 03:10:49;;;;;;;;;50.75;44.00;;;;;6.00;86.12;102448.91;4835486;29;45562;-84
2022/01/27 03:13:15;;;;;;;;;52.50;43.50;;;;;6.04;86.20;102454.34;4834550;29;47780;-83
2022/01/27 03:15:40;;;;;;;;;49.25;42.00;;;;;6.06;85.99;102456.31;4835523;29;45392;-83
2022/01/27 03:18:06;;;;;;;;;53.50;41.75;;;;;6.11;86.21;102446.91;4834486;29;45444;-84
2022/01/27 03:20:33;;;;;;;;;56.25;47.00;;;;;6.12;85.86;102432.91;4833978;29;45706;-85
2022/01/27 03:23:02;;;;;;;;;47.50;40.75;;;;;6.27;85.75;102439.91;4834730;29;47587;-84
2022/01/27 03:25:28;;;;;;;;;61.75;48.50;;;;;6.29;86.01;102456.75;4834577;29;45602;-84
2022/01/27 03:27:53;;;;;;;;;56.25;42.50;;;;;6.30;85.99;102443.63;4836106;29;45844;-84
2022/01/27 03:30:19;;;;;;;;;47.67;40.67;;;;;6.37;85.99;102442.25;4836027;29;44910;-84
2022/01/27 03:32:45;;;;;;;;;58.50;45.25;;;;;6.34;85.86;102434.13;4853151;29;45446;-85
2022/01/27 03:35:10;;;;;;;;;53.75;43.00;;;;;6.37;85.34;102450.19;4853242;29;45520;-85
2022/01/27 03:37:36;;;;;;;;;55.75;43.00;;;;;6.34;85.61;102450.00;4836949;29;45443;-85
2022/01/27 03:40:02;;;;;;;;;58.50;49.75;;;;;6.35;85.65;102452.72;4836462;29;44966;-84
2022/01/27 03:42:29;;;;;;;;;51.75;42.75;;;;;6.32;85.55;102446.34;4852856;29;45505;-84
2022/01/27 03:44:54;;;;;;;;;47.67;41.33;;;;;6.34;85.39;102455.28;4836989;29;45473;-85
2022/01/27 03:47:20;;;;;;;;;45.75;39.25;;;;;6.34;85.81;102455.28;4835820;29;45323;-85
2022/01/27 03:49:45;;;;;;;;;45.00;36.75;;;;;6.37;86.12;102450.19;4833205;29;45423;-85
2022/01/27 03:52:11;;;;;;;;;63.25;48.25;;;;;6.37;85.68;102447.53;4817928;29;47339;-85
2022/01/27 03:54:36;;;;;;;;;49.50;41.50;;;;;6.41;85.55;102452.19;4835380;29;44689;-85
2022/01/27 03:57:02;;;;;;;;;57.75;44.50;;;;;6.41;85.43;102447.81;4850171;29;45299;-84
2022/01/27 03:59:29;;;;;;;;;55.50;43.00;;;;;6.43;85.25;102444.34;4852579;29;45359;-83
2022/01/27 04:01:55;;;;;;;;;50.00;41.67;;;;;6.40;85.51;102431.84;4834302;29;47561;-83
2022/01/27 04:04:23;;;;;;;;;46.50;41.75;;;;;6.52;85.51;102437.84;4851346;29;45545;-84
2022/01/27 04:06:52;;;;;;;;;52.00;43.00;;;;;6.49;85.34;102432.41;4834557;29;45863;-85
2022/01/27 04:09:18;;;;;;;;;54.50;41.50;;;;;6.56;85.20;102439.88;4849712;29;45296;-84
2022/01/27 04:11:44;;;;;;;;;45.50;37.25;;;;;6.51;85.08;102421.91;4850227;29;45739;-85
2022/01/27 04:14:13;;;;;;;;;52.75;41.50;;;;;6.65;85.28;102435.94;4832564;29;45551;-85
2022/01/27 04:16:39;;;;;;;;;53.50;42.25;;;;;6.69;84.65;102438.84;4850584;29;45413;-85
2022/01/27 04:19:04;;;;;;;;;57.50;45.25;;;;;6.69;84.47;102432.63;4834697;29;45379;-84
2022/01/27 04:21:31;;;;;;;;;52.50;44.00;;;;;6.70;84.48;102439.72;4851322;29;45372;-83
2022/01/27 04:23:56;;;;;;;;;54.00;42.00;;;;;6.57;84.77;102433.75;4835073;29;46178;-84
2022/01/27 04:26:30;;;;;;;;;51.00;41.67;;;;;6.60;84.83;102439.22;4854844;29;45297;-83
2022/01/27 04:28:57;;;;;;;;;43.00;36.67;;;;;6.63;84.78;102443.78;4837611;29;45380;-83
2022/01/27 04:31:25;;;;;;;;;51.75;42.00;;;;;6.55;84.98;102429.19;4852383;29;45450;-84
2022/01/27 04:33:51;;;;;;;;;49.75;41.50;;;;;6.52;84.51;102419.34;4834991;29;45519;-84
2022/01/27 04:36:26;;;;;;;;;56.67;44.67;;;;;6.49;85.04;102424.47;4836076;29;45764;-84
2022/01/27 04:39:00;;;;;;;;;49.50;41.00;;;;;6.57;84.96;102438.13;4835788;29;45699;-84
2022/01/27 04:41:42;;;;;;;;;60.50;43.00;;;;;6.63;85.12;102440.22;4835463;29;47665;-84
2022/01/27 04:44:25;;;;;;;;;51.00;37.33;;;;;6.61;84.73;102443.66;4834087;29;45332;-84
2022/01/27 04:47:07;;;;;;;;;52.75;43.50;;;;;6.51;84.56;102430.75;4851089;29;45343;-84
2022/01/27 04:49:32;;;;;;;;;57.00;45.00;;;;;6.57;84.96;102438.13;4850961;29;45497;-84
2022/01/27 04:51:58;;;;;;;;;53.33;40.00;;;;;6.55;84.67;102434.50;4834383;29;48080;-85
2022/01/27 04:54:30;;;;;;;;;43.00;36.67;;;;;6.53;84.65;102425.56;4852012;29;45841;-84
2022/01/27 04:56:59;;;;;;;;;44.33;40.67;;;;;6.55;84.95;102440.69;4837689;29;45543;-86
2022/01/27 04:59:28;;;;;;;;;37.00;32.33;;;;;6.53;84.44;102431.75;4836798;29;45376;-84
2022/01/27 05:02:00;;;;;;;;;47.33;38.33;;;;;6.45;84.64;102427.75;4854239;29;46410;-84
2022/01/27 05:04:30;;;;;;;;;41.00;37.67;;;;;6.47;84.92;102439.31;4853677;29;44838;-83
2022/01/27 05:06:56;;;;;;;;;55.33;40.67;;;;;6.40;84.77;102431.84;4850956;29;44854;-84
2022/01/27 05:09:23;;;;;;;;;57.33;42.67;;;;;6.31;85.14;102412.84;4834884;29;45398;-83
2022/01/27 05:11:54;;;;;;;;;52.67;42.00;;;;;6.40;84.95;102424.84;4833540;29;47069;-83
2022/01/27 05:14:23;;;;;;;;;50.67;39.67;;;;;6.43;85.32;102421.47;4833746;29;45514;-83
2022/01/27 05:16:48;;;;;;;;;55.00;43.00;;;;;6.36;84.90;102414.00;4834062;29;45873;-84
2022/01/27 05:19:14;;;;;;;;;50.67;41.67;;;;;6.37;85.19;102419.38;4849845;29;45400;-83
2022/01/27 05:21:40;;;;;;;;;38.33;33.67;;;;;6.35;85.23;102407.81;4838163;29;46686;-83
2022/01/27 05:24:07;;;;;;;;;46.33;37.00;;;;;6.38;85.06;102418.56;4837154;29;45402;-83
2022/01/27 05:26:34;;;;;;;;;57.00;41.33;;;;;6.38;85.03;102415.94;4837941;29;45463;-84
2022/01/27 05:29:00;;;;;;;;;49.67;40.33;;;;;6.53;85.24;102420.28;4836550;29;45376;-84
2022/01/27 05:31:26;;;;;;;;;37.33;36.33;;;;;6.56;84.94;102421.38;4837629;29;47160;-84
2022/01/27 05:33:51;;;;;;;;;47.00;41.33;;;;;6.59;85.14;102424.16;4838528;29;44887;-84
2022/01/27 05:36:16;;;;;;;;;43.00;37.67;;;;;6.70;85.31;102421.22;4850857;29;45425;-84
2022/01/27 05:38:42;;;;;;;;;48.00;38.00;;;;;6.67;84.53;102419.31;4834862;29;45443;-84
2022/01/27 05:41:07;;;;;;;;;57.33;43.00;;;;;6.58;84.69;102406.50;4848294;29;45406;-84
2022/01/27 05:43:33;;;;;;;;;41.33;33.33;;;;;6.57;84.33;102428.47;4832740;29;45945;-84
2022/01/27 05:45:59;;;;;;;;;54.33;40.67;;;;;6.55;85.05;102424.81;4835442;29;45425;-84
2022/01/27 05:48:25;;;;;;;;;46.67;40.33;;;;;6.53;84.76;102423.81;4835839;29;45554;-84
2022/01/27 05:50:51;;;;;;;;;44.67;38.33;;;;;6.45;84.83;102417.19;4852850;29;45362;-84
2022/01/27 05:53:17;;;;;;;;;51.00;41.67;;;;;6.45;85.35;102422.47;4831198;29;45520;-84
2022/01/27 05:55:42;;;;;;;;;55.67;44.00;;;;;6.40;84.97;102409.00;4835718;29;44728;-85
2022/01/27 05:58:07;;;;;;;;;46.33;38.00;;;;;6.35;85.10;102407.81;4835364;29;45514;-84
2022/01/27 06:00:34;;;;;;;;;51.67;42.33;;;;;6.45;85.33;102417.19;4831876;29;48182;-85
2022/01/27 06:02:59;;;;;;;;;45.33;38.67;;;;;6.54;85.10;102417.69;4832007;29;45553;-85
2022/01/27 06:05:26;;;;;;;;;48.33;40.33;;;;;6.58;85.27;102419.72;4818997;29;45465;-84
2022/01/27 06:07:52;;;;;;;;;47.00;42.00;;;;;6.63;85.22;102422.63;4819487;29;45446;-85
2022/01/27 06:10:18;;;;;;;;;55.00;45.67;;;;;6.64;84.91;102424.41;4834297;29;47005;-84
2022/01/27 06:12:48;;;;;;;;;53.33;44.67;;;;;6.58;84.80;102417.06;4820951;29;46076;-85
2022/01/27 06:15:13;;;;;;;;;61.33;44.67;;;;;6.57;84.93;102431.09;4838904;29;45832;-84
2022/01/27 06:17:39;;;;;;;;;50.67;40.00;;;;;6.66;85.04;102445.66;4838866;29;45426;-84
2022/01/27 06:20:05;;;;;;;;;48.00;40.33;;;;;6.74;85.07;102441.72;4837578;29;45444;-84
2022/01/27 06:22:31;;;;;;;;;39.67;36.33;;;;;6.73;84.80;102434.63;4833025;29;44908;-84
2022/01/27 06:24:56;;;;;;;;;51.00;39.00;;;;;6.77;84.54;102440.19;4816423;29;45496;-84
2022/01/27 06:27:22;;;;;;;;;46.00;38.33;;;;;6.81;84.68;102438.63;4817224;29;45789;-85
2022/01/27 06:29:47;;;;;;;;;42.33;37.33;;;;;6.80;84.72;102436.78;4816433;29;46554;-84
2022/01/27 06:32:12;;;;;;;;;46.33;38.33;;;;;6.81;84.49;102430.69;4816315;29;46151;-84
2022/01/27 06:34:38;;;;;;;;;45.00;38.33;;;;;6.85;84.57;102435.31;4833957;29;45586;-84
2022/01/27 06:37:03;;;;;;;;;60.33;42.67;;;;;6.82;83.92;102440.44;4821281;29;45493;-84
2022/01/27 06:39:29;;;;;;;;;47.33;33.00;;;;;6.72;84.51;102432.78;4820441;29;47313;-84
2022/01/27 06:41:54;;;;;;;;;39.67;37.33;;;;;6.73;84.31;102450.50;4835107;29;45703;-83
2022/01/27 06:45:16;;;;;;;;;47.33;36.67;;;;;6.83;84.72;102444.91;4836860;29;45395;-83
2022/01/27 06:47:41;;;;;;;;;37.67;35.00;;;;;6.79;84.51;102440.28;4821314;29;44947;-84
2022/01/27 06:50:07;;;;;;;;;50.00;37.33;;;;;6.80;84.07;102439.44;4819064;29;45634;-84
2022/01/27 06:52:35;;;;;;;;;48.67;38.67;;;;;6.81;84.43;102446.56;4832754;29;44951;-84
2022/01/27 06:55:03;;;;;;;;;41.00;37.33;;;;;6.79;84.52;102445.56;4830653;29;45488;-84
2022/01/27 06:57:28;;;;;;;;;41.67;36.33;;;;;6.76;84.47;102434.78;4834875;29;45338;-84
2022/01/27 06:59:54;;;;;;;;;50.00;37.67;;;;;6.80;84.74;102435.03;4818672;29;47447;-84
2022/01/27 07:02:21;;;;;;;;;41.33;37.33;;;;;6.88;84.46;102443.41;4834838;29;45437;-84
2022/01/27 07:04:46;;;;;;;;;40.00;36.33;;;;;6.87;84.47;102451.25;4837243;29;45423;-83
2022/01/27 07:07:36;;;;;;;;;40.33;39.00;;;;;6.73;84.59;102424.97;4823635;29;45499;-84
2022/01/27 07:12:41;;;;;;;;;46.00;41.00;;;;;6.87;84.35;102436.31;3214104;27;45775;-83
2022/01/27 07:15:09;;;;;;;;;49.00;39.33;;;;;6.90;84.06;102449.69;4873039;29;45546;-86
2022/01/27 07:17:35;;;;;;;;;49.67;39.67;;;;;6.72;84.19;102423.13;4872287;29;45432;-85
2022/01/27 07:20:00;;;;;;;;;46.33;41.33;;;;;6.78;84.58;102438.44;4856260;29;46839;-85
2022/01/27 07:22:26;;;;;;;;;47.33;41.67;;;;;6.75;84.62;102417.13;4853419;29;45345;-85
2022/01/27 07:24:51;;;;;;;;;42.67;37.67;;;;;6.95;84.48;102442.06;4868382;29;45363;-85
2022/01/27 07:27:38;;;;;;;;;45.33;40.67;;;;;6.78;84.20;102423.47;4854399;29;45715;-84
2022/01/27 07:30:18;;;;;;;;;46.33;39.00;;;;;6.70;84.38;102381.56;4868578;29;45427;-85
2022/01/27 07:32:51;;;;;;;;;46.00;38.33;;;;;6.94;84.29;102430.53;4870956;29;45066;-85
2022/01/27 07:35:31;;;;;;;;;47.00;38.00;;;;;7.01;84.21;102440.66;4870183;29;45711;-85
2022/01/27 07:38:26;;;;;;;;;44.00;38.00;;;;;7.01;84.35;102435.34;4823976;29;45472;-85
2022/01/27 07:40:52;;;;;;;;;41.67;38.33;;;;;6.74;84.26;102410.00;4875802;29;45630;-85
2022/01/27 07:43:18;;;;;;;;;49.67;40.33;;;;;6.77;84.42;102426.94;4872627;29;45608;-85
2022/01/27 07:45:45;;;;;;;;;54.33;41.33;;;;;6.86;84.51;102436.22;4858472;29;45464;-85
2022/01/27 07:48:10;;;;;;;;;54.67;44.67;;;;;6.83;84.47;102447.56;4874200;29;45398;-84
2022/01/27 07:50:36;;;;;;;;;52.33;38.67;;;;;6.82;84.70;102445.72;4877199;29;45304;-85
2022/01/27 07:53:34;;;;;;;;;39.67;33.33;;;;;6.84;84.72;102435.22;4859678;29;44864;-85
2022/01/27 07:56:13;;;;;;;;;50.67;42.33;;;;;6.71;84.96;102421.31;4869696;29;44772;-85
2022/01/27 07:58:59;;;;;;;;;57.25;42.50;;;;;6.68;84.79;102426.41;4874269;29;45513;-85
2022/01/27 08:01:54;;;;;;;;;60.25;46.75;;;;;6.89;84.62;102452.25;4876214;29;47169;-85
2022/01/27 08:13:32;;;;;;;;;51.75;38.50;;;;;6.96;84.85;102449.16;984033;27;46133;-86
2022/01/27 08:19:47;;;;;;;;;59.00;45.00;;;;;6.98;84.79;102458.06;4938858;23;44974;-85
2022/01/27 08:22:44;;;;;;;;;51.25;41.25;;;;;6.88;84.67;102427.53;4862528;29;44853;-85
2022/01/27 08:25:26;;;;;;;;;47.67;39.33;;;;;7.08;85.26;102459.50;4876485;29;45560;-85
2022/01/27 08:27:57;;;;;;;;;48.00;38.00;;;;;6.84;84.64;102414.97;4854431;29;45778;-86
2022/01/27 08:30:35;;;;;;;;;43.33;38.00;;;;;7.11;85.41;102450.00;4871900;29;45313;-85
2022/01/27 08:33:33;;;;;;;;;49.33;39.00;;;;;7.06;84.40;102421.47;4861451;29;44962;-85
2022/01/27 08:36:00;;;;;;;;;48.00;41.33;;;;;7.18;84.71;102454.81;4865834;29;45326;-85
2022/01/27 08:38:31;;;;;;;;;54.33;41.67;;;;;7.25;84.40;102453.44;4875727;29;45423;-86
2022/01/27 08:41:02;;;;;;;;;48.33;41.00;;;;;7.22;84.22;102434.72;4877521;29;45495;-86
2022/01/27 08:44:00;;;;;;;;;45.67;41.33;;;;;7.18;84.31;102438.03;4877373;29;45443;-85
2022/01/27 09:00:44;;;;;;;;;40.67;35.33;;;;;7.37;84.13;102434.63;4935070;23;45033;-85
2022/01/27 09:03:16;;;;;;;;;35.67;32.67;;;;;7.38;84.46;102439.13;4878275;29;44986;-86
2022/01/27 09:06:02;;;;;;;;;39.67;36.67;;;;;7.52;84.35;102429.28;4880967;28;45463;-84
2022/01/27 09:19:00;;;;;;;;;47.00;38.00;;;;;7.48;83.13;102382.28;3133605;27;45993;-84
2022/01/27 09:21:39;;;;;;;;;33.33;33.33;;;;;7.36;83.04;102367.56;4862575;29;45427;-85
2022/01/27 09:24:06;;;;;;;;;55.00;40.33;;;;;7.63;83.12;102411.31;4863606;29;44901;-83
2022/01/27 09:27:00;;;;;;;;;51.33;40.33;;;;;7.78;83.30;102433.31;4857693;29;45455;-83
2022/01/27 09:29:40;;;;;;;;;;;;;;;;;;;;;
2022/01/27 09:32:11;;;;;;;;;46.67;38.00;;;;;7.71;82.94;102405.56;4857092;29;72410;-83
2022/01/27 09:34:47;;;;;;;;;44.00;38.33;;;;;7.92;83.10;102434.94;4847571;29;45717;-82
2022/01/27 09:37:16;;;;;;;;;51.67;40.33;;;;;7.96;83.59;102441.31;4858315;29;45744;-83
2022/01/27 09:39:56;;;;;;;;;44.67;39.00;;;;;8.07;82.77;102426.88;4861569;29;45822;-82
2022/01/27 09:43:18;;;;;;;;;54.00;41.00;;;;;8.20;83.15;102434.63;4861622;29;45432;-82
2022/01/27 09:45:44;;;;;;;;;46.33;38.00;;;;;8.26;82.82;102425.16;4868113;29;45261;-83
2022/01/27 09:48:20;;;;;;;;;41.33;36.67;;;;;8.31;82.84;102431.59;4860402;29;45384;-83
2022/01/27 09:53:51;;;;;;;;;44.33;37.33;;;;;8.33;82.22;102406.97;4878554;28;45457;-84
2022/01/27 09:57:09;;;;;;;;;42.33;37.67;;;;;8.52;82.15;102427.38;4888286;28;45388;-85
2022/01/27 10:00:30;;;;;;;;;43.67;34.33;;;;;8.70;81.46;102423.84;4849426;29;45400;-85
2022/01/27 10:14:57;;;;;;;;;38.00;36.67;;;;;8.73;81.11;102363.00;4857662;29;45477;-87
2022/01/27 10:17:29;;;;;;;;;40.67;33.33;;;;;8.74;80.73;102373.66;4854365;29;45540;-84
2022/01/27 10:19:57;;;;;;;;;45.00;37.00;;;;;8.83;81.03;102373.19;4859792;29;45295;-84
2022/01/27 10:22:30;;;;;;;;;39.33;33.33;;;;;8.90;80.75;102379.69;4873584;29;45284;-84
2022/01/27 10:25:28;;;;;;;;;41.00;32.00;;;;;9.18;80.68;102419.06;4869918;29;45378;-84
2022/01/27 10:32:02;;;;;;;;;;;;;;;;;;;;;
2022/01/27 11:16:11;;;;;;;;;40.00;35.00;;;;;9.67;79.39;102410.66;4867972;28;44982;-87
2022/01/27 11:21:44;;;;;;;;;43.00;36.67;;;;;9.57;79.46;102397.81;4830482;29;45417;-86
2022/01/27 11:24:30;;;;;;;;;46.33;39.33;;;;;9.53;79.46;102363.97;4852729;29;45601;-87
2022/01/27 11:27:05;;;;;;;;;41.33;34.67;;;;;9.81;78.59;102403.28;4843230;29;45540;-86
2022/01/27 11:29:40;;;;;;;;;40.33;33.67;;;;;9.80;79.21;102409.47;4840351;29;45405;-85
2022/01/27 11:32:28;;;;;;;;;45.67;37.67;;;;;9.75;79.24;102403.03;4841782;29;44787;-86
2022/01/27 11:35:35;;;;;;;;;49.67;37.67;;;;;9.81;79.14;102395.31;4843781;29;45586;-84
2022/01/27 11:38:04;;;;;;;;;32.67;31.67;;;;;9.75;79.36;102377.34;4797056;29;45547;-85
2022/01/27 11:40:38;;;;;;;;;40.33;33.67;;;;;9.78;79.58;102369.53;4800012;29;45916;-84
2022/01/27 11:43:38;;;;;;;;;36.67;34.33;;;;;9.91;79.23;102378.03;4784337;29;44985;-85
2022/01/27 11:46:39;;;;;;;;;42.00;39.00;;;;;9.93;79.23;102365.72;4771416;29;45421;-87
2022/01/27 11:49:54;;;;;;;;;;;;;;;;;;;;;
2022/01/27 11:52:54;;;;;;;;;53.00;40.00;;;;;10.11;78.30;102360.28;4796736;29;67727;-82
2022/01/27 11:55:33;;;;;;;;;50.33;39.67;;;;;10.09;78.90;102362.88;4798597;29;45660;-83
2022/01/27 11:58:17;;;;;;;;;45.33;37.33;;;;;10.10;79.20;102362.03;4796805;29;45337;-85
2022/01/27 12:01:14;;;;;;;;;41.67;35.67;;;;;10.15;79.37;102373.75;4788473;29;44960;-83
2022/01/27 12:04:21;;;;;;;;;38.00;35.00;;;;;10.11;78.82;102344.31;4783336;29;45991;-83
2022/01/27 12:07:39;;;;;;;;;28.33;27.33;;;;;10.28;78.73;102366.28;4799674;29;45258;-85
2022/01/27 12:10:52;;;;;;;;;51.33;41.00;;;;;10.28;78.46;102364.56;4782591;29;45596;-81
2022/01/27 12:24:00;;;;;;;;;47.00;37.00;;;;;10.48;78.01;102372.47;4790083;29;45807;-86
2022/01/27 12:27:00;;;;;;;;;50.67;39.33;;;;;10.42;78.24;102370.44;4813097;29;44798;-83
2022/01/27 12:29:34;;;;;;;;;42.00;30.00;;;;;10.44;78.42;102378.50;4848657;29;45459;-83
2022/01/27 12:32:31;;;;;;;;;40.67;34.67;;;;;10.19;78.55;102338.47;4840269;29;45435;-83
2022/01/27 12:35:21;;;;;;;;;48.67;39.00;;;;;10.42;78.58;102381.09;4835220;29;45566;-83
2022/01/27 12:38:20;;;;;;;;;47.00;39.00;;;;;10.32;78.35;102354.97;4850774;29;45383;-84
2022/01/27 12:41:10;;;;;;;;;48.67;41.67;;;;;10.28;78.13;102343.28;4831609;29;45112;-83
2022/01/27 12:43:53;;;;;;;;;55.75;42.75;;;;;10.39;78.30;102354.38;4818443;29;45360;-83
2022/01/27 12:46:26;;;;;;;;;57.00;42.33;;;;;10.20;78.35;102313.72;4850109;29;46084;-85
2022/01/27 12:48:55;;;;;;;;;47.67;38.67;;;;;10.54;78.47;102344.38;4835980;29;45514;-83
2022/01/27 12:55:00;;;;;;;;;43.67;37.00;;;;;10.82;78.33;102356.09;4861195;29;44774;-84
2022/01/27 12:57:32;;;;;;;;;49.33;40.33;;;;;10.92;78.00;102349.38;4842114;29;45804;-83
2022/01/27 13:00:13;;;;;;;;;45.00;36.00;;;;;10.98;77.65;102345.19;4836856;29;44950;-84
2022/01/27 13:03:02;;;;;;;;;43.00;36.33;;;;;10.98;77.63;102330.97;4848498;29;44969;-84
2022/01/27 13:05:53;;;;;;;;;38.33;36.33;;;;;11.06;77.67;102332.16;4813487;29;45551;-82
2022/01/27 13:08:51;;;;;;;;;;;;;;;;;;;;;
2022/01/27 13:11:53;;;;;;;;;;;;;;;;;;;;;
2022/01/27 13:14:23;;;;;;;;;33.33;31.67;;;;;10.97;77.80;102334.50;4858500;29;69120;-84
2022/01/27 13:17:05;;;;;;;;;39.67;32.00;;;;;10.84;78.15;102330.44;4854359;29;45371;-83
2022/01/27 13:20:19;;;;;;;;;43.00;35.67;;;;;10.89;78.23;102328.88;4826811;29;45881;-82
2022/01/27 13:22:50;;;;;;;;;43.67;36.00;;;;;10.79;78.27;102324.03;4829688;29;45475;-83
2022/01/27 13:25:16;;;;;;;;;43.67;36.00;;;;;10.75;78.32;102315.03;4822571;29;44810;-83
2022/01/27 13:28:01;;;;;;;;;40.33;34.33;;;;;10.81;78.50;102325.91;4826958;29;45599;-84
2022/01/27 13:30:36;;;;;;;;;39.00;34.67;;;;;10.57;78.70;102283.28;4841883;29;47958;-82
2022/01/27 13:33:16;;;;;;;;;39.33;34.33;;;;;10.63;78.35;102314.56;4821543;29;44890;-83
2022/01/27 13:36:02;;;;;;;;;33.00;29.00;;;;;10.57;79.21;102309.91;4841428;29;45558;-83
2022/01/27 13:39:12;;;;;;;;;47.67;37.00;;;;;10.41;79.13;102278.22;4823882;29;45172;-83
2022/01/27 13:41:45;;;;;;;;;37.00;36.33;;;;;10.40;79.37;102271.06;4837550;29;45174;-83
2022/01/27 13:47:49;;;;;;;;;40.00;35.67;;;;;10.54;79.38;102303.53;4846087;29;45480;-82
2022/01/27 13:50:22;;;;;;;;;43.33;37.00;;;;;10.38;79.67;102276.34;4829360;29;45526;-84
2022/01/27 13:52:49;;;;;;;;;38.67;33.00;;;;;10.38;79.59;102275.44;4818333;29;45549;-84
2022/01/27 13:55:25;;;;;;;;;31.67;28.67;;;;;10.41;79.70;102265.81;4829195;29;45779;-82
2022/01/27 13:58:03;;;;;;;;;32.67;28.33;;;;;10.59;79.47;102313.53;4823917;29;45512;-82
2022/01/27 14:01:23;;;;;;;;;38.67;32.33;;;;;10.63;79.58;102297.69;4839238;29;45380;-83
2022/01/27 14:03:50;;;;;;;;;40.00;37.67;;;;;10.57;79.49;102307.22;4850532;29;46864;-82
2022/01/27 14:06:22;;;;;;;;;32.67;29.67;;;;;10.48;79.88;102292.66;4837098;29;45478;-86
2022/01/27 14:08:55;;;;;;;;;37.00;32.33;;;;;10.59;79.64;102296.66;4811448;29;44899;-84
2022/01/27 14:11:36;;;;;;;;;37.00;31.67;;;;;10.77;79.61;102299.13;4828274;29;44978;-85
2022/01/27 14:14:05;;;;;;;;;48.00;39.33;;;;;10.77;79.54;102284.06;4825501;29;47977;-82
2022/01/27 14:16:34;;;;;;;;;38.33;33.67;;;;;10.86;79.70;102294.13;4829818;29;44783;-83
2022/01/27 14:19:16;;;;;;;;;2.00;2.00;;;;;10.98;79.46;102294.59;4833140;29;44928;-83
2022/01/27 14:21:50;;;;;;;;;36.67;30.00;;;;;10.98;79.30;102286.59;4839081;29;45067;-82
2022/01/27 14:24:21;;;;;;;;;46.67;36.33;;;;;10.99;79.40;102301.75;4805105;29;47103;-82
2022/01/27 14:26:59;;;;;;;;;35.00;29.00;;;;;11.06;79.22;102294.00;4827367;29;45394;-83
2022/01/27 14:29:26;;;;;;;;;33.33;31.67;;;;;10.83;79.28;102248.78;4821531;29;45534;-84